Time;durP1;ratioP1;P1;durP2;ratioP2;P2;SDS_P1;SDS_P2;PMS_P1;PMS_P2;Temp;Humidity;BMP_temperature;BMP_pressure;BME280_temperature;BME280_humidity;BME280_pressure;Samples;Min_cycle;Max_cycle;Signal;HPM_P1;HPM_P2
2022/05/09 00:00:15;;;;;;;18.02;5.40;;;;;;;6.96;nan;102973.28;5057363;28;20506;-46
2022/05/09 00:02:41;;;;;;;10.27;4.20;;;;;;;6.95;nan;102967.13;5056717;28;20032;-46
2022/05/09 00:05:08;;;;;;;18.30;5.53;;;;;;;6.94;nan;102965.47;5057615;28;20017;-47
2022/05/09 00:07:34;;;;;;;12.75;4.70;;;;;;;6.93;nan;102962.97;5058834;28;20032;-47
2022/05/09 00:10:00;;;;;;;15.45;5.95;;;;;;;6.90;nan;102958.81;5053627;28;20035;-47
2022/05/09 00:12:26;;;;;;;16.48;5.93;;;;;;;6.91;nan;102965.81;5056867;28;20032;-46
2022/05/09 00:14:52;;;;;;;14.90;4.75;;;;;;;6.88;nan;102963.50;5056298;28;20028;-47
2022/05/09 00:17:17;;;;;;;12.70;5.93;;;;;;;6.89;nan;102967.00;5056232;28;20508;-47
2022/05/09 00:19:43;;;;;;;17.73;6.30;;;;;;;6.88;nan;102971.50;5055307;28;20079;-46
2022/05/09 00:22:08;;;;;;;17.38;6.50;;;;;;;6.88;nan;102978.66;5054478;28;20024;-47
2022/05/09 00:24:34;;;;;;;19.98;6.80;;;;;;;6.88;nan;102974.16;5058338;28;20035;-47
2022/05/09 00:26:59;;;;;;;16.52;6.82;;;;;;;6.91;nan;102980.97;5060874;28;20049;-47
2022/05/09 00:29:25;;;;;;;14.10;6.72;;;;;;;6.93;nan;102977.13;5060248;28;20035;-48
2022/05/09 00:31:55;;;;;;;14.52;6.30;;;;;;;6.94;nan;102977.97;5056711;28;20466;-47
2022/05/09 00:34:21;;;;;;;12.98;6.22;;;;;;;6.96;nan;102982.13;5055375;28;20035;-48
2022/05/09 00:36:48;;;;;;;13.13;5.88;;;;;;;6.95;nan;102980.47;5056104;28;20089;-47
2022/05/09 00:39:16;;;;;;;16.80;6.13;;;;;;;6.96;nan;102986.63;5055061;28;20024;-47
2022/05/09 00:41:43;;;;;;;15.50;5.93;;;;;;;6.98;nan;102993.44;5056230;28;20028;-47
2022/05/09 00:44:18;;;;;;;17.80;5.78;;;;;;;7.01;nan;102991.47;5051809;28;20058;-48
2022/05/09 00:46:47;;;;;;;18.45;6.65;;;;;;;7.07;nan;102991.59;5056972;28;20028;-47
2022/05/09 00:49:27;;;;;;;13.30;8.20;;;;;;;7.13;nan;102995.41;5055168;28;20401;-48
2022/05/09 00:52:31;;;;;;;20.17;8.25;;;;;;;7.23;nan;102996.06;5058720;28;20040;-47
2022/05/09 00:55:27;;;;;;;21.15;10.50;;;;;;;7.31;nan;102992.53;5042784;28;20032;-47
2022/05/09 00:58:23;;;;;;;18.10;8.90;;;;;;;7.38;nan;102996.19;5051412;28;20041;-47
2022/05/09 01:00:50;;;;;;;19.27;8.80;;;;;;;7.50;nan;102998.28;5053130;28;20675;-47
2022/05/09 01:03:35;;;;;;;19.45;9.45;;;;;;;7.55;nan;103000.47;5055954;28;20032;-47
2022/05/09 01:06:01;;;;;;;;;;;;;;;7.54;nan;102996.97;5055786;28;20066;-47
2022/05/09 01:08:26;;;;;;;20.70;9.82;;;;;;;7.66;nan;102991.22;5053095;28;19916;-47
2022/05/09 01:10:54;;;;;;;24.15;9.50;;;;;;;7.73;nan;102990.38;5056453;28;20048;-47
2022/05/09 01:13:24;;;;;;;21.02;10.30;;;;;;;7.78;nan;102992.53;5053827;28;20059;-47
2022/05/09 01:15:54;;;;;;;19.35;9.95;;;;;;;7.83;nan;102992.81;5057157;28;20039;-48
2022/05/09 01:18:20;;;;;;;22.02;10.75;;;;;;;7.87;nan;102994.13;5055744;28;20036;-48
2022/05/09 01:20:46;;;;;;;22.75;11.05;;;;;;;7.92;nan;102993.63;5056097;28;20086;-47
2022/05/09 01:23:13;;;;;;;20.60;10.45;;;;;;;7.96;nan;102985.06;5060142;28;20020;-47
2022/05/09 01:25:39;;;;;;;19.98;10.73;;;;;;;8.01;nan;102993.38;5056565;28;20017;-48
2022/05/09 01:28:06;;;;;;;21.77;10.30;;;;;;;8.05;nan;102992.00;5056945;28;20503;-47
2022/05/09 01:30:40;;;;;;;21.83;10.50;;;;;;;8.06;nan;102996.34;5055959;28;20041;-47
2022/05/09 01:33:13;;;;;;;20.08;11.00;;;;;;;8.06;nan;102984.84;5064887;28;20032;-47
2022/05/09 01:35:45;;;;;;;23.23;12.15;;;;;;;8.07;nan;102992.66;5061922;28;20123;-47
2022/05/09 01:38:35;;;;;;;23.00;11.23;;;;;;;8.04;nan;102984.19;5059746;28;20032;-47
2022/05/09 01:41:00;;;;;;;26.05;12.40;;;;;;;8.08;nan;102988.19;5063361;28;20021;-47
2022/05/09 01:43:37;;;;;;;20.77;12.07;;;;;;;8.05;nan;102986.69;5056680;28;20021;-48
2022/05/09 01:46:05;;;;;;;19.52;11.88;;;;;;;8.01;nan;102990.72;5059216;28;20021;-47
2022/05/09 01:51:15;;;;;;;21.90;11.60;;;;;;;7.95;nan;102987.94;5062309;28;20071;-48
2022/05/09 01:53:45;;;;;;;20.80;11.98;;;;;;;7.90;nan;102991.13;5062677;28;20382;-47
2022/05/09 01:56:13;;;;;;;22.15;12.50;;;;;;;7.87;nan;102991.47;5062473;28;20028;-48
2022/05/09 01:58:39;;;;;;;21.95;11.80;;;;;;;7.83;nan;102988.31;5056138;28;20027;-47
2022/05/09 02:01:06;;;;;;;28.58;13.38;;;;;;;7.79;nan;102983.50;5057758;28;20021;-47
2022/05/09 02:03:31;;;;;;;25.27;12.50;;;;;;;7.75;nan;102990.22;5058589;28;20029;-47
2022/05/09 02:05:57;;;;;;;20.08;12.25;;;;;;;7.71;nan;102988.88;5056004;28;20029;-47
2022/05/09 02:08:22;;;;;;;20.40;11.43;;;;;;;7.66;nan;102992.06;5061072;28;20482;-48
2022/05/09 02:10:48;;;;;;;22.83;11.05;;;;;;;7.63;nan;102991.59;5059255;28;20036;-47
2022/05/09 02:13:13;;;;;;;19.98;11.43;;;;;;;7.60;nan;102987.44;5066385;28;20028;-47
2022/05/09 02:15:39;;;;;;;19.63;11.13;;;;;;;7.58;nan;102989.44;5057725;28;20032;-47
2022/05/09 02:18:05;;;;;;;17.48;10.38;;;;;;;7.55;nan;102995.97;5064128;28;20486;-47
2022/05/09 02:20:30;;;;;;;20.27;10.73;;;;;;;7.53;nan;102995.28;5060037;28;20032;-48
2022/05/09 02:22:56;;;;;;;21.83;10.35;;;;;;;7.49;nan;102991.31;5061444;28;20028;-47
2022/05/09 02:25:29;;;;;;;21.80;11.35;;;;;;;7.47;nan;102997.81;5060648;28;20019;-47
2022/05/09 02:27:59;;;;;;;18.90;9.70;;;;;;;7.45;nan;103000.66;5067317;28;20035;-47
2022/05/09 02:30:25;;;;;;;18.02;11.25;;;;;;;7.41;nan;102994.00;5066342;28;20109;-47
2022/05/09 02:32:52;;;;;;;19.33;10.68;;;;;;;7.40;nan;102994.19;5059823;28;20025;-48
2022/05/09 02:35:19;;;;;;;21.42;9.68;;;;;;;7.38;nan;102998.88;5058217;28;20028;-47
2022/05/09 02:37:44;;;;;;;21.20;11.10;;;;;;;7.35;nan;103002.69;5058137;28;20661;-47
2022/05/09 02:40:11;;;;;;;18.02;10.80;;;;;;;7.32;nan;103004.88;5055832;28;20032;-47
2022/05/09 02:42:37;;;;;;;18.48;9.45;;;;;;;7.27;nan;103010.72;5056106;28;20311;-47
2022/05/09 02:45:03;;;;;;;21.60;10.80;;;;;;;7.26;nan;103014.38;5053231;28;20017;-47
2022/05/09 02:47:29;;;;;;;19.48;10.52;;;;;;;7.23;nan;103014.75;5061494;28;20052;-48
2022/05/09 02:49:54;;;;;;;15.70;9.50;;;;;;;7.21;nan;103014.06;5059260;28;20058;-47
2022/05/09 02:52:20;;;;;;;18.17;9.90;;;;;;;7.17;nan;103015.41;5058250;28;20028;-47
2022/05/09 02:54:45;;;;;;;23.73;11.25;;;;;;;7.13;nan;103017.56;5062184;28;20025;-48
2022/05/09 02:57:12;;;;;;;18.98;9.32;;;;;;;7.08;nan;103024.44;5060315;28;20029;-47
2022/05/09 02:59:38;;;;;;;19.73;9.35;;;;;;;7.04;nan;103021.28;5062649;28;20107;-47
2022/05/09 03:02:03;;;;;;;19.45;9.82;;;;;;;7.03;nan;103021.44;5062181;28;20118;-47
2022/05/09 03:04:41;;;;;;;20.70;10.48;;;;;;;7.01;nan;103028.78;5056929;28;20028;-47
2022/05/09 03:07:13;;;;;;;20.25;10.30;;;;;;;6.96;nan;103026.59;5062817;28;20465;-48
2022/05/09 03:09:41;;;;;;;16.20;9.77;;;;;;;6.95;nan;103031.09;5059907;28;20040;-47
2022/05/09 03:12:08;;;;;;;17.45;9.68;;;;;;;6.92;nan;103031.44;5061547;28;20101;-47
2022/05/09 03:14:35;;;;;;;20.25;9.85;;;;;;;6.90;nan;103035.28;5056613;28;20036;-47
2022/05/09 03:17:02;;;;;;;19.23;9.40;;;;;;;6.86;nan;103031.28;5060515;28;20024;-47
2022/05/09 03:19:28;;;;;;;15.85;9.25;;;;;;;6.81;nan;103033.59;5055157;28;20498;-47
2022/05/09 03:21:54;;;;;;;12.98;8.15;;;;;;;6.76;nan;103030.63;5059048;28;20024;-47
2022/05/09 03:24:19;;;;;;;13.43;8.45;;;;;;;6.70;nan;103034.78;5054226;28;20112;-47
2022/05/09 03:26:46;;;;;;;14.02;8.00;;;;;;;6.63;nan;103026.59;5059192;28;20112;-47
2022/05/09 03:29:13;;;;;;;16.17;8.10;;;;;;;6.59;nan;103024.44;5061528;28;20057;-47
2022/05/09 03:31:39;;;;;;;14.65;7.88;;;;;;;6.56;nan;103024.78;5059413;28;20029;-47
2022/05/09 03:34:05;;;;;;;17.80;8.70;;;;;;;6.53;nan;103025.97;5055063;28;20033;-47
2022/05/09 03:36:31;;;;;;;15.48;8.05;;;;;;;6.51;nan;103027.97;5064768;28;20031;-47
2022/05/09 03:38:57;;;;;;;17.90;9.20;;;;;;;6.51;nan;103024.47;5060177;28;20039;-47
2022/05/09 03:41:22;;;;;;;13.75;8.40;;;;;;;6.53;nan;103030.44;5063439;28;20087;-47
2022/05/09 03:43:48;;;;;;;15.07;9.07;;;;;;;6.52;nan;103028.78;5056954;28;20028;-48
2022/05/09 03:46:14;;;;;;;14.38;8.20;;;;;;;6.54;nan;103030.28;5061930;28;20024;-48
2022/05/09 03:48:39;;;;;;;14.85;9.05;;;;;;;6.57;nan;103034.44;5060969;28;20032;-47
2022/05/09 03:51:05;;;;;;;18.20;9.48;;;;;;;6.59;nan;103029.78;5058837;28;20118;-48
2022/05/09 03:53:31;;;;;;;16.27;8.55;;;;;;;6.61;nan;103031.28;5059846;28;20117;-48
2022/05/09 03:55:57;;;;;;;13.68;8.85;;;;;;;6.66;nan;103030.81;5058855;28;20075;-49
2022/05/09 03:58:23;;;;;;;13.25;8.63;;;;;;;6.70;nan;103032.13;5064204;28;20025;-49
2022/05/09 04:00:49;;;;;;;14.77;7.80;;;;;;;6.75;nan;103039.59;5056959;28;20043;-47
2022/05/09 04:03:15;;;;;;;15.35;8.70;;;;;;;6.79;nan;103038.28;5058067;28;20028;-47
2022/05/09 04:05:41;;;;;;;14.32;8.82;;;;;;;6.83;nan;103043.13;5059638;28;20039;-47
2022/05/09 04:08:10;;;;;;;17.50;9.52;;;;;;;6.86;nan;103037.44;5060083;28;20115;-48
2022/05/09 04:10:37;;;;;;;15.75;8.48;;;;;;;6.92;nan;103035.94;5056883;28;20471;-47
2022/05/09 04:13:04;;;;;;;15.35;9.10;;;;;;;6.96;nan;103037.25;5061680;28;20437;-47
2022/05/09 04:18:17;;;;;;;15.30;8.87;;;;;;;7.07;nan;103039.59;5057326;28;20083;-47
2022/05/09 04:20:44;;;;;;;15.18;8.20;;;;;;;7.14;nan;103034.41;5055447;28;20451;-47
2022/05/09 04:23:10;;;;;;;14.95;8.65;;;;;;;7.22;nan;103039.75;5059383;28;20177;-47
2022/05/09 04:25:36;;;;;;;14.93;8.50;;;;;;;7.28;nan;103047.88;5056297;28;20079;-47
2022/05/09 04:28:05;;;;;;;12.05;8.30;;;;;;;7.36;nan;103043.50;5058656;28;20032;-47
2022/05/09 04:30:32;;;;;;;13.07;8.75;;;;;;;7.45;nan;103045.16;5059201;28;20253;-47
2022/05/09 04:32:58;;;;;;;15.75;9.00;;;;;;;7.52;nan;103052.31;5060470;28;20028;-47
2022/05/09 04:35:24;;;;;;;15.73;9.05;;;;;;;7.60;nan;103046.13;5056844;28;20048;-47
2022/05/09 04:37:52;;;;;;;16.38;9.43;;;;;;;7.68;nan;103053.25;5058483;28;20032;-47
2022/05/09 04:40:21;;;;;;;13.63;7.95;;;;;;;7.76;nan;103051.41;5055391;28;20338;-47
2022/05/09 04:42:46;;;;;;;11.65;7.75;;;;;;;7.83;nan;103049.69;5058272;28;20429;-47
2022/05/09 04:45:14;;;;;;;12.20;7.38;;;;;;;7.91;nan;103053.34;5056692;28;20125;-47
2022/05/09 04:47:40;;;;;;;13.82;7.80;;;;;;;8.01;nan;103061.97;5059520;28;20525;-48
2022/05/09 04:50:09;;;;;;;14.20;7.60;;;;;;;8.10;nan;103047.56;5055392;28;20106;-47
2022/05/09 04:52:34;;;;;;;19.20;8.82;;;;;;;8.18;nan;103048.34;5058119;28;20032;-47
2022/05/09 04:55:00;;;;;;;14.43;7.43;;;;;;;8.28;nan;103050.81;5057453;28;20397;-48
2022/05/09 04:57:25;;;;;;;16.00;8.32;;;;;;;8.36;nan;103050.78;5056194;28;20082;-48
2022/05/09 04:59:51;;;;;;;14.40;6.97;;;;;;;8.46;nan;103047.88;5057646;28;20025;-48
2022/05/09 05:02:16;;;;;;;16.98;7.65;;;;;;;8.56;nan;103053.81;5060826;28;20103;-47
2022/05/09 05:04:42;;;;;;;12.00;7.13;;;;;;;8.64;nan;103055.59;5055129;28;20461;-49
2022/05/09 05:07:08;;;;;;;12.25;7.07;;;;;;;8.76;nan;103059.50;5057451;28;20024;-48
2022/05/09 05:09:34;;;;;;;10.77;6.88;;;;;;;8.86;nan;103056.59;5056749;28;20032;-49
2022/05/09 05:11:59;;;;;;;9.60;6.25;;;;;;;8.97;nan;103058.81;5061079;28;20392;-47
2022/05/09 05:14:25;;;;;;;11.75;6.85;;;;;;;9.07;nan;103062.06;5059638;28;20048;-47
2022/05/09 05:17:00;;;;;;;11.25;6.38;;;;;;;9.17;nan;103062.66;5060879;28;20482;-48
2022/05/09 05:19:31;;;;;;;10.45;6.15;;;;;;;9.27;nan;103065.06;5055456;28;20021;-48
2022/05/09 05:21:59;;;;;;;11.13;5.57;;;;;;;9.39;nan;103066.28;5058737;28;20028;-48
2022/05/09 05:24:26;;;;;;;10.25;5.85;;;;;;;9.49;nan;103069.50;5053438;28;20024;-49
2022/05/09 05:26:56;;;;;;;7.32;5.07;;;;;;;9.58;nan;103070.25;5058959;28;20673;-47
2022/05/09 05:29:23;;;;;;;10.77;6.22;;;;;;;9.69;nan;103073.31;5060098;28;20047;-47
2022/05/09 05:31:49;;;;;;;9.25;5.97;;;;;;;9.79;nan;103066.81;5056566;28;20533;-47
2022/05/09 05:34:15;;;;;;;8.85;4.43;;;;;;;9.86;nan;103063.19;5054933;28;20059;-49
2022/05/09 05:36:40;;;;;;;11.27;4.93;;;;;;;9.88;nan;103071.91;5055191;28;20032;-48
2022/05/09 05:39:08;;;;;;;11.48;4.15;;;;;;;9.94;nan;103064.94;5051682;28;20101;-47
2022/05/09 05:41:34;;;;;;;8.02;3.97;;;;;;;9.99;nan;103059.84;5048571;28;20027;-49
2022/05/09 05:43:59;;;;;;;6.72;3.97;;;;;;;10.03;nan;103074.53;5052188;28;20402;-47
2022/05/09 05:46:25;;;;;;;9.25;4.20;;;;;;;10.11;nan;103068.25;5057267;28;20024;-47
2022/05/09 05:48:51;;;;;;;4.55;3.40;;;;;;;10.15;nan;103070.34;5053548;28;20029;-49
2022/05/09 05:51:18;;;;;;;5.22;3.50;;;;;;;10.21;nan;103074.16;5050503;28;20023;-47
2022/05/09 05:53:47;;;;;;;7.03;3.70;;;;;;;10.34;nan;103076.97;5050079;28;20116;-48
2022/05/09 05:56:13;;;;;;;6.50;3.40;;;;;;;10.40;nan;103076.22;5056501;28;20557;-48
2022/05/09 05:58:39;;;;;;;4.72;3.45;;;;;;;10.50;nan;103066.03;5053048;28;20139;-47
2022/05/09 06:01:05;;;;;;;6.75;3.67;;;;;;;10.58;nan;103071.25;5051215;28;20036;-47
2022/05/09 06:03:30;;;;;;;8.27;3.08;;;;;;;10.74;nan;103072.00;5057520;28;20675;-48
2022/05/09 06:05:56;;;;;;;19.65;4.55;;;;;;;10.89;nan;103064.72;5050750;28;20098;-48
2022/05/09 06:08:22;;;;;;;9.07;3.13;;;;;;;11.04;nan;103068.16;5053190;28;20047;-49
2022/05/09 06:10:47;;;;;;;11.27;3.80;;;;;;;11.10;nan;103072.72;5054304;28;20474;-47
2022/05/09 06:13:13;;;;;;;7.55;3.55;;;;;;;11.20;nan;103077.78;5053730;28;20576;-48
2022/05/09 06:15:41;;;;;;;5.65;3.03;;;;;;;11.31;nan;103071.00;5053610;28;20434;-48
2022/05/09 06:18:11;;;;;;;6.55;3.00;;;;;;;11.37;nan;103073.75;5058223;28;20036;-47
2022/05/09 06:20:38;;;;;;;4.70;2.70;;;;;;;11.50;nan;103073.03;5057873;28;20028;-48
2022/05/09 06:23:05;;;;;;;5.47;2.45;;;;;;;11.61;nan;103080.50;5058165;28;20059;-48
2022/05/09 06:25:34;;;;;;;4.93;2.60;;;;;;;11.73;nan;103084.31;5056469;28;20020;-49
2022/05/09 06:28:00;;;;;;;6.40;2.90;;;;;;;11.86;nan;103080.88;5054021;28;20020;-48
2022/05/09 06:30:27;;;;;;;6.35;3.08;;;;;;;12.05;nan;103079.31;5059222;28;20426;-48
2022/05/09 06:32:54;;;;;;;3.25;2.35;;;;;;;12.22;nan;103088.69;5056810;28;20024;-49
2022/05/09 06:35:26;;;;;;;5.43;3.05;;;;;;;12.35;nan;103090.56;5061534;28;20047;-48
2022/05/09 06:38:01;;;;;;;5.72;2.72;;;;;;;12.47;nan;103088.94;5061027;28;20509;-48
2022/05/09 06:40:32;;;;;;;6.22;2.67;;;;;;;12.65;nan;103074.91;5059289;28;20100;-47
2022/05/09 06:42:59;;;;;;;3.72;2.45;;;;;;;12.82;nan;103078.03;5055253;28;21289;-49
2022/05/09 06:45:26;;;;;;;4.20;2.53;;;;;;;12.95;nan;103086.94;5057601;28;20016;-48
2022/05/09 06:47:54;;;;;;;3.47;2.47;;;;;;;13.04;nan;103076.78;5057548;28;20082;-49
2022/05/09 06:50:22;;;;;;;7.15;3.03;;;;;;;13.05;nan;103078.44;5059875;28;20062;-48
2022/05/09 06:52:47;;;;;;;4.68;2.97;;;;;;;13.16;nan;103077.00;5056170;28;20578;-47
2022/05/09 06:55:14;;;;;;;4.55;2.45;;;;;;;13.29;nan;103085.09;5060576;28;20028;-48
2022/05/09 06:57:42;;;;;;;4.32;2.50;;;;;;;13.46;nan;103086.28;5063622;28;20056;-47
2022/05/09 07:00:12;;;;;;;4.35;2.50;;;;;;;13.64;nan;103088.31;5060693;28;20078;-46
2022/05/09 07:02:38;;;;;;;5.43;2.42;;;;;;;13.78;nan;103086.41;5059824;28;20492;-47
2022/05/09 07:05:06;;;;;;;6.63;2.70;;;;;;;13.88;nan;103084.09;5058389;28;20024;-48
2022/05/09 07:07:31;;;;;;;7.72;3.08;;;;;;;13.89;nan;103083.88;5056934;28;20024;-49
2022/05/09 07:09:57;;;;;;;5.78;2.83;;;;;;;13.96;nan;103091.09;5061546;28;20020;-50
2022/05/09 07:12:22;;;;;;;4.53;2.38;;;;;;;14.01;nan;103100.22;5060986;28;20133;-50
2022/05/09 07:14:48;;;;;;;5.82;2.40;;;;;;;14.09;nan;103091.06;5059101;28;20509;-49
2022/05/09 07:17:14;;;;;;;5.15;2.63;;;;;;;14.19;nan;103086.88;5057053;28;20086;-48
2022/05/09 07:19:39;;;;;;;4.55;3.00;;;;;;;14.28;nan;103086.59;5059298;28;20029;-49
2022/05/09 07:22:05;;;;;;;6.38;2.58;;;;;;;14.40;nan;103083.00;5061496;28;20024;-48
2022/05/09 07:24:30;;;;;;;5.15;2.55;;;;;;;14.53;nan;103076.72;5064688;28;20068;-48
2022/05/09 07:26:56;;;;;;;5.53;3.00;;;;;;;14.62;nan;103077.31;5057981;28;20047;-48
2022/05/09 07:29:21;;;;;;;5.35;2.50;;;;;;;14.76;nan;103082.38;5059978;28;20491;-48
2022/05/09 07:31:47;;;;;;;5.35;3.20;;;;;;;14.86;nan;103081.06;5056906;28;20056;-48
2022/05/09 07:34:13;;;;;;;5.28;2.90;;;;;;;14.97;nan;103080.34;5059439;28;20048;-48
2022/05/09 07:36:38;;;;;;;3.03;2.10;;;;;;;15.02;nan;103083.22;5059501;28;20025;-47
2022/05/09 07:39:05;;;;;;;7.40;2.47;;;;;;;15.16;nan;103065.84;5055691;28;20052;-48
2022/05/09 07:41:31;;;;;;;5.50;2.80;;;;;;;15.33;nan;103079.59;5054852;28;20126;-46
2022/05/09 07:43:57;;;;;;;5.82;2.38;;;;;;;15.41;nan;103084.69;5061768;28;20124;-46
2022/05/09 07:46:23;;;;;;;6.63;2.50;;;;;;;15.54;nan;103079.16;5059934;28;20013;-45
2022/05/09 07:48:49;;;;;;;6.60;3.17;;;;;;;15.66;nan;103079.28;5056835;28;20103;-45
2022/05/09 07:51:16;;;;;;;6.57;2.80;;;;;;;15.82;nan;103078.69;5062983;28;20024;-45
2022/05/09 07:53:41;;;;;;;4.85;2.70;;;;;;;15.98;nan;103075.38;5058699;28;20124;-49
2022/05/09 07:56:08;;;;;;;6.60;2.75;;;;;;;16.14;nan;103073.06;5060531;28;20029;-46
2022/05/09 07:58:34;;;;;;;7.82;2.55;;;;;;;16.26;nan;103073.94;5056944;28;20111;-45
2022/05/09 08:01:01;;;;;;;8.63;3.20;;;;;;;16.39;nan;103073.75;5061783;28;20038;-49
2022/05/09 08:03:29;;;;;;;5.97;2.83;;;;;;;16.41;nan;103076.22;5058296;28;20056;-46
2022/05/09 08:05:56;;;;;;;5.40;3.00;;;;;;;16.52;nan;103062.75;5055893;28;20027;-47
2022/05/09 08:08:22;;;;;;;6.03;2.90;;;;;;;16.62;nan;103062.16;5059135;28;20027;-46
2022/05/09 08:10:49;;;;;;;7.07;2.90;;;;;;;16.73;nan;103057.88;5060908;28;20568;-47
2022/05/09 08:13:17;;;;;;;4.95;2.50;;;;;;;16.85;nan;103053.28;5058273;28;20043;-46
2022/05/09 08:15:44;;;;;;;6.85;2.53;;;;;;;17.01;nan;103054.47;5059733;28;20566;-45
2022/05/09 08:18:10;;;;;;;5.40;2.88;;;;;;;17.19;nan;103052.47;5052318;28;20029;-47
2022/05/09 08:20:38;;;;;;;4.13;2.25;;;;;;;17.32;nan;103059.53;5060153;28;20107;-48
2022/05/09 08:23:09;;;;;;;5.60;2.47;;;;;;;17.31;nan;103057.88;5061474;28;20565;-47
2022/05/09 08:25:36;;;;;;;4.65;2.22;;;;;;;17.33;nan;103054.94;5054470;28;20075;-45
2022/05/09 08:28:03;;;;;;;4.53;1.95;;;;;;;17.28;nan;103047.53;5058077;28;20033;-46
2022/05/09 08:30:34;;;;;;;4.15;2.25;;;;;;;17.36;nan;103049.84;5060825;28;20528;-45
2022/05/09 08:33:07;;;;;;;5.50;2.55;;;;;;;17.57;nan;103056.53;5059661;28;20028;-45
2022/05/09 08:35:33;;;;;;;3.08;1.95;;;;;;;17.77;nan;103054.31;5056442;28;20036;-47
2022/05/09 08:37:59;;;;;;;5.70;2.30;;;;;;;17.91;nan;103051.28;5055901;28;20020;-47
2022/05/09 08:40:37;;;;;;;4.00;2.30;;;;;;;18.05;nan;103055.38;5058686;28;20074;-46
2022/05/09 08:43:17;;;;;;;6.72;2.38;;;;;;;18.18;nan;103055.09;5059083;28;20029;-46
2022/05/09 08:45:52;;;;;;;6.15;2.40;;;;;;;18.26;nan;103054.69;5058463;28;20042;-47
2022/05/09 08:48:24;;;;;;;5.57;2.60;;;;;;;18.48;nan;103045.81;5060830;28;20033;-47
2022/05/09 08:51:11;;;;;;;4.15;2.20;;;;;;;18.30;nan;103052.28;5057650;28;20032;-48
2022/05/09 08:53:41;;;;;;;7.55;2.22;;;;;;;18.34;nan;103053.47;5058850;28;20473;-47
2022/05/09 08:56:14;;;;;;;5.75;2.38;;;;;;;18.30;nan;103057.72;5055959;28;20629;-47
2022/05/09 08:58:51;;;;;;;5.63;2.30;;;;;;;18.42;nan;103056.59;5057260;28;20532;-47
2022/05/09 09:01:22;;;;;;;8.20;2.25;;;;;;;18.64;nan;103056.72;5059016;28;20774;-49
2022/05/09 09:04:24;;;;;;;6.07;2.22;;;;;;;18.50;nan;103046.44;5064088;28;20032;-47
2022/05/09 09:07:15;;;;;;;4.13;1.80;;;;;;;18.51;nan;103048.91;5021240;28;20036;-47
2022/05/09 09:09:49;;;;;;;4.22;2.00;;;;;;;18.65;nan;103052.13;5059920;28;20038;-47
2022/05/09 09:12:45;;;;;;;8.05;2.20;;;;;;;18.65;nan;103052.94;5057718;28;20111;-48
2022/05/09 09:15:44;;;;;;;6.78;2.15;;;;;;;18.75;nan;103041.44;5059627;28;20090;-47
2022/05/09 09:18:44;;;;;;;5.47;2.50;;;;;;;19.01;nan;103040.75;5062953;28;20035;-49
2022/05/09 09:21:17;;;;;;;5.97;2.10;;;;;;;19.31;nan;103034.09;5058844;28;20025;-48
2022/05/09 09:24:13;;;;;;;3.25;2.05;;;;;;;19.43;nan;103039.44;5061394;28;20574;-47
2022/05/09 09:26:50;;;;;;;4.05;1.80;;;;;;;19.48;nan;103034.88;5059330;28;20028;-48
2022/05/09 09:29:24;;;;;;;4.07;2.10;;;;;;;19.55;nan;103029.28;5054825;28;20066;-46
2022/05/09 09:32:00;;;;;;;5.95;2.33;;;;;;;19.68;nan;103019.91;5057977;28;20297;-48
2022/05/09 09:34:50;;;;;;;4.82;2.30;;;;;;;19.87;nan;103011.16;5058610;28;20070;-47
2022/05/09 09:37:35;;;;;;;6.00;2.22;;;;;;;20.03;nan;103014.88;5059529;28;20033;-46
2022/05/09 09:40:00;;;;;;;4.57;2.20;;;;;;;20.13;nan;103014.97;5059975;28;20121;-47
2022/05/09 09:42:26;;;;;;;4.00;1.95;;;;;;;20.13;nan;103014.97;5058284;28;20032;-47
2022/05/09 09:44:54;;;;;;;8.15;2.85;;;;;;;20.28;nan;103008.00;5057812;28;20020;-49
2022/05/09 09:47:20;;;;;;;3.70;1.88;;;;;;;20.27;nan;103009.91;5061069;28;20029;-47
2022/05/09 09:49:48;;;;;;;3.85;1.92;;;;;;;20.26;nan;103012.88;5057774;28;20024;-50
2022/05/09 09:52:37;;;;;;;3.90;1.65;;;;;;;20.27;nan;103006.38;5057689;28;20033;-49
2022/05/09 09:55:25;;;;;;;5.78;1.70;;;;;;;20.37;nan;103006.47;5060187;28;20083;-47
2022/05/09 09:57:51;;;;;;;4.22;1.90;;;;;;;20.26;nan;103000.09;5060073;28;20028;-47
2022/05/09 10:00:21;;;;;;;2.47;1.63;;;;;;;20.17;nan;103002.50;5063371;28;20048;-49
2022/05/09 10:02:48;;;;;;;4.13;1.90;;;;;;;20.16;nan;102998.13;5060684;28;20442;-47
2022/05/09 10:05:16;;;;;;;5.57;2.15;;;;;;;20.17;nan;102996.22;5058962;28;20473;-47
2022/05/09 10:07:45;;;;;;;8.50;1.70;;;;;;;20.40;nan;102981.44;5062741;28;20028;-50
2022/05/09 10:10:11;;;;;;;2.90;1.80;;;;;;;20.61;nan;102977.00;5061193;28;20036;-49
2022/05/09 10:12:39;;;;;;;3.55;1.80;;;;;;;20.71;nan;102972.44;5063207;28;20528;-47
2022/05/09 10:15:23;;;;;;;3.25;1.25;;;;;;;20.60;nan;102965.28;5064225;28;20036;-47
2022/05/09 10:17:49;;;;;;;6.15;1.88;;;;;;;20.60;nan;102964.47;5063028;28;20029;-47
2022/05/09 10:20:33;;;;;;;4.32;1.88;;;;;;;20.64;nan;102965.56;5063194;28;20041;-48
2022/05/09 10:26:00;;;;;;;4.97;1.80;;;;;;;20.87;nan;102969.81;5060772;28;20038;-50
2022/05/09 10:28:30;;;;;;;3.10;1.42;;;;;;;20.74;nan;102960.22;5061412;28;20028;-49
2022/05/09 10:31:10;;;;;;;6.32;1.50;;;;;;;20.65;nan;102961.78;5063510;28;20067;-48
2022/05/09 10:33:45;;;;;;;12.68;2.03;;;;;;;20.61;nan;102969.66;5063852;28;20021;-49
2022/05/09 10:36:21;;;;;;;5.32;1.70;;;;;;;20.68;nan;102969.44;5062277;28;20020;-49
2022/05/09 10:38:57;;;;;;;11.02;2.45;;;;;;;20.92;nan;102969.84;5060755;28;20020;-47
2022/05/09 10:41:29;;;;;;;3.47;1.80;;;;;;;21.03;nan;102963.38;5057053;28;20028;-47
2022/05/09 10:44:17;;;;;;;24.20;3.08;;;;;;;20.89;nan;102957.56;5057303;28;20488;-48
2022/05/09 10:46:48;;;;;;;3.63;1.55;;;;;;;21.08;nan;102952.50;5060812;28;20020;-49
2022/05/09 10:49:33;;;;;;;7.25;1.95;;;;;;;21.21;nan;102945.75;5064197;28;20089;-49
2022/05/09 10:52:16;;;;;;;12.38;2.28;;;;;;;21.16;nan;102948.44;5062950;28;20044;-49
2022/05/09 10:54:52;;;;;;;6.18;1.58;;;;;;;21.21;nan;102943.84;5057252;28;20284;-49
2022/05/09 10:57:28;;;;;;;4.53;2.00;;;;;;;21.35;nan;102928.63;5064031;28;20424;-50
2022/05/09 11:00:05;;;;;;;4.07;1.92;;;;;;;21.35;nan;102936.81;5063015;28;20489;-49
2022/05/09 11:02:37;;;;;;;3.67;1.45;;;;;;;21.18;nan;102933.44;5062080;28;20029;-47
2022/05/09 11:05:03;;;;;;;3.55;1.67;;;;;;;21.08;nan;102934.22;5057600;28;20021;-47
2022/05/09 11:07:40;;;;;;;25.60;3.03;;;;;;;21.17;nan;102934.53;5059341;28;20482;-47
2022/05/09 11:10:22;;;;;;;22.42;3.08;;;;;;;21.13;nan;102922.53;5058753;28;20028;-47
2022/05/09 11:13:13;;;;;;;7.50;1.73;;;;;;;21.13;nan;102930.69;5075275;22;20497;-46
2022/05/09 11:16:14;;;;;;;3.47;1.30;;;;;;;21.15;nan;102922.25;5061646;28;20074;-46
2022/05/09 11:18:40;;;;;;;7.53;1.88;;;;;;;21.24;nan;102920.66;5012036;28;20487;-45
2022/05/09 11:21:24;;;;;;;7.53;1.83;;;;;;;21.30;nan;102927.81;5040328;28;20025;-47
2022/05/09 11:26:31;;;;;;;3.38;1.48;;;;;;;21.44;nan;102917.22;5059492;28;20060;-47
2022/05/09 11:29:20;;;;;;;4.55;1.60;;;;;;;21.35;nan;102915.00;5061885;28;20203;-47
2022/05/09 11:32:04;;;;;;;2.40;1.40;;;;;;;21.55;nan;102925.16;5061845;28;20039;-46
2022/05/09 11:34:59;;;;;;;10.23;1.83;;;;;;;21.58;nan;102921.91;5063349;28;20123;-49
2022/05/09 11:37:38;;;;;;;3.80;1.60;;;;;;;21.77;nan;102916.75;5060787;28;20064;-46
2022/05/09 11:40:34;;;;;;;2.85;1.30;;;;;;;21.73;nan;102912.94;5062992;28;20032;-46
2022/05/09 11:43:28;;;;;;;2.58;1.45;;;;;;;21.83;nan;102902.00;5062725;28;20036;-46
2022/05/09 11:46:24;;;;;;;4.70;1.60;;;;;;;21.92;nan;102905.84;5060389;28;20040;-49
2022/05/09 11:49:04;;;;;;;2.45;1.15;;;;;;;21.87;nan;102894.91;5063187;28;20104;-46
2022/05/09 11:51:47;;;;;;;2.33;1.30;;;;;;;21.62;nan;102892.97;5059748;28;20028;-47
2022/05/09 11:54:25;;;;;;;2.40;1.67;;;;;;;21.63;nan;102893.81;5066238;28;20417;-46
2022/05/09 11:56:55;;;;;;;3.85;1.38;;;;;;;21.82;nan;102894.09;5065785;28;20423;-47
2022/05/09 11:59:27;;;;;;;3.03;1.45;;;;;;;21.97;nan;102892.19;5065485;28;20103;-46
2022/05/09 12:02:04;;;;;;;3.00;1.50;;;;;;;22.11;nan;102888.94;5066166;28;20039;-47
2022/05/09 12:04:44;;;;;;;4.03;1.55;;;;;;;22.10;nan;102888.13;5065974;28;20030;-46
2022/05/09 12:07:22;;;;;;;12.93;2.67;;;;;;;22.24;nan;102894.66;5062598;28;20036;-48